createdAt,value
2019-04-04T00:01:32.087Z,22.33
2019-04-04T00:04:00.813Z,23.37
2019-04-04T00:06:30.312Z,19.13
2019-04-04T00:09:00.084Z,22.07
2019-04-04T00:11:29.397Z,21.20
2019-04-04T00:13:58.117Z,21.87
2019-04-04T00:16:26.665Z,21.03
2019-04-04T00:18:58.482Z,23.63
2019-04-04T00:21:25.826Z,22.60
2019-04-04T00:23:54.575Z,19.77
2019-04-04T00:26:23.026Z,20.27
2019-04-04T00:28:51.824Z,23.50
2019-04-04T00:31:20.514Z,22.53
2019-04-04T00:33:49.178Z,20.50
2019-04-04T00:36:17.974Z,21.80
2019-04-04T00:38:47.885Z,23.17
2019-04-04T00:41:16.481Z,22.53
2019-04-04T00:43:45.115Z,22.20
2019-04-04T00:46:13.844Z,21.03
2019-04-04T00:48:42.761Z,22.57
2019-04-04T00:51:11.521Z,23.07
2019-04-04T00:53:42.818Z,20.87
2019-04-04T00:56:10.685Z,21.50
2019-04-04T00:58:39.157Z,24.77
2019-04-04T01:01:07.912Z,24.07
2019-04-04T01:03:36.486Z,24.20
2019-04-04T01:06:05.212Z,23.77
2019-04-04T01:08:38.079Z,21.90
2019-04-04T01:11:05.201Z,23.93
2019-04-04T01:13:33.692Z,22.47
2019-04-04T01:16:02.880Z,23.37
2019-04-04T01:18:32.073Z,22.13
2019-04-04T01:21:00.770Z,25.10
2019-04-04T01:23:29.589Z,23.90
2019-04-04T01:25:58.153Z,25.23
2019-04-04T01:28:26.834Z,23.87
2019-04-04T01:30:55.372Z,21.83
2019-04-04T01:33:24.036Z,22.93
2019-04-04T01:35:53.976Z,24.17
2019-04-04T01:38:23.080Z,24.93
2019-04-04T01:40:51.620Z,23.73
2019-04-04T01:43:20.130Z,23.80
2019-04-04T01:45:48.751Z,23.97
2019-04-04T01:48:18.857Z,24.03
2019-04-04T01:50:49.094Z,23.50
2019-04-04T01:53:17.812Z,25.23
2019-04-04T01:55:46.498Z,24.23
2019-04-04T01:58:15.242Z,24.43
2019-04-04T02:00:46.069Z,26.80
2019-04-04T02:03:14.531Z,24.87
2019-04-04T02:05:43.355Z,24.20
2019-04-04T02:08:12.469Z,23.50
2019-04-04T02:10:42.136Z,24.93
2019-04-04T02:13:10.962Z,24.87
2019-04-04T02:15:39.365Z,24.77
2019-04-04T02:18:08.027Z,24.10
2019-04-04T02:20:39.348Z,22.90
2019-04-04T02:23:07.893Z,23.70
2019-04-04T02:25:36.357Z,24.30
2019-04-04T02:28:06.855Z,22.83
2019-04-04T02:30:35.589Z,22.07
2019-04-04T02:33:04.254Z,22.97
2019-04-04T02:35:33.005Z,23.70
2019-04-04T02:38:01.778Z,21.73
2019-04-04T02:40:30.500Z,22.87
2019-04-04T02:42:59.153Z,23.10
2019-04-04T02:45:27.606Z,21.80
2019-04-04T02:47:56.352Z,23.57
2019-04-04T02:50:24.985Z,23.90
2019-04-04T02:52:53.679Z,21.87
2019-04-04T02:55:22.192Z,22.77
2019-04-04T02:57:50.904Z,22.97
2019-04-04T03:00:19.592Z,23.60
2019-04-04T03:02:48.363Z,21.10
2019-04-04T03:05:19.210Z,22.77
2019-04-04T03:07:47.584Z,25.37
2019-04-04T03:10:16.793Z,23.67
2019-04-04T03:12:46.769Z,24.83
2019-04-04T03:15:15.600Z,25.90
2019-04-04T03:17:44.223Z,24.57
2019-04-04T03:20:16.354Z,25.50
2019-04-04T03:22:43.566Z,26.70
2019-04-04T03:25:14.703Z,26.23
2019-04-04T03:27:42.648Z,24.93
2019-04-04T03:30:14.853Z,26.37
2019-04-04T03:32:41.892Z,26.10
2019-04-04T03:35:10.709Z,27.07
2019-04-04T03:37:41.032Z,27.73
2019-04-04T03:40:09.631Z,27.13
2019-04-04T03:42:38.424Z,27.23
2019-04-04T03:45:07.612Z,26.10
2019-04-04T03:47:36.232Z,24.70
2019-04-04T03:50:05.370Z,26.80
2019-04-04T03:52:33.968Z,26.50
2019-04-04T03:55:02.604Z,26.67
2019-04-04T03:57:31.104Z,27.43
2019-04-04T04:00:05.927Z,26.53
2019-04-04T04:02:32.284Z,25.30
2019-04-04T04:05:01.920Z,29.33
2019-04-04T04:07:30.897Z,29.83
2019-04-04T04:10:00.345Z,28.50
2019-04-04T04:12:29.169Z,29.67
2019-04-04T04:14:58.967Z,31.53
2019-04-04T04:17:27.547Z,30.00
2019-04-04T04:19:56.101Z,33.57
2019-04-04T04:22:24.516Z,32.47
2019-04-04T04:24:53.087Z,33.53
2019-04-04T04:27:21.645Z,33.57
2019-04-04T04:29:50.260Z,33.20
2019-04-04T04:32:21.481Z,30.63
2019-04-04T04:34:49.244Z,33.00
2019-04-04T04:37:20.287Z,31.77
2019-04-04T04:39:48.178Z,32.10
2019-04-04T04:42:16.805Z,32.03
2019-04-04T04:44:45.380Z,35.10
2019-04-04T04:47:13.945Z,33.77
2019-04-04T04:49:42.584Z,35.17
2019-04-04T04:52:14.201Z,32.77
2019-04-04T04:54:41.430Z,34.37
2019-04-04T04:57:17.755Z,34.23
2019-04-04T04:59:44.262Z,31.97
2019-04-04T05:02:11.634Z,30.03
2019-04-04T05:04:42.640Z,35.17
2019-04-04T05:07:11.484Z,32.77
2019-04-04T05:09:40.094Z,33.23
2019-04-04T05:12:09.263Z,33.77
2019-04-04T05:14:40.422Z,33.93
2019-04-04T05:17:12.337Z,28.90
2019-04-04T05:19:45.203Z,34.43
2019-04-04T05:22:15.045Z,35.97
2019-04-04T05:24:44.210Z,35.27
2019-04-04T05:27:13.580Z,36.77
2019-04-04T05:29:42.925Z,37.43
2019-04-04T05:32:13.172Z,35.37
2019-04-04T05:34:41.776Z,35.13
2019-04-04T05:37:10.554Z,36.20
2019-04-04T05:39:39.984Z,37.83
2019-04-04T05:42:08.690Z,36.63
2019-04-04T05:44:37.347Z,36.20
2019-04-04T05:47:05.968Z,37.37
2019-04-04T05:49:36.141Z,36.60
2019-04-04T05:52:08.802Z,35.47
2019-04-04T05:54:37.074Z,31.83
2019-04-04T05:57:07.470Z,36.87
2019-04-04T05:59:36.074Z,36.20
2019-04-04T06:02:04.796Z,34.53
2019-04-04T06:04:33.387Z,33.93
2019-04-04T06:07:06.136Z,32.30
2019-04-04T06:09:35.477Z,35.03
2019-04-04T06:12:04.698Z,33.87
2019-04-04T06:14:33.912Z,35.43
2019-04-04T06:17:05.142Z,34.33
2019-04-04T06:19:34.997Z,33.57
2019-04-04T06:22:04.319Z,31.10
2019-04-04T06:24:33.438Z,32.33
2019-04-04T06:27:03.239Z,33.23
2019-04-04T06:29:32.460Z,30.50
2019-04-04T06:32:01.523Z,32.80
2019-04-04T06:34:32.458Z,32.30
2019-04-04T06:37:01.794Z,30.80
2019-04-04T06:39:31.468Z,32.03
2019-04-04T06:42:03.188Z,32.57
2019-04-04T06:44:54.105Z,33.90
2019-04-04T06:47:23.116Z,34.33
2019-04-04T06:49:53.999Z,32.77
2019-04-04T06:52:23.983Z,33.37
2019-04-04T06:54:55.246Z,33.90
2019-04-04T06:57:25.333Z,33.53
2019-04-04T06:59:54.610Z,34.70
2019-04-04T07:02:24.656Z,32.13
2019-04-04T07:04:53.842Z,33.47
2019-04-04T07:07:23.325Z,29.57
2019-04-04T07:09:53.448Z,29.30
2019-04-04T07:12:28.227Z,30.83
2019-04-04T07:14:54.438Z,27.57
2019-04-04T07:17:24.425Z,23.93
2019-04-04T07:19:54.584Z,29.60
2019-04-04T07:22:24.923Z,27.13
2019-04-04T07:24:54.762Z,25.93
2019-04-04T07:27:24.625Z,28.20
2019-04-04T07:29:56.586Z,29.33
2019-04-04T07:32:26.677Z,25.93
2019-04-04T07:34:56.014Z,23.03
2019-04-04T07:37:46.541Z,25.13
2019-04-04T07:40:20.089Z,23.60
2019-04-04T07:42:51.747Z,20.80
2019-04-04T07:45:21.335Z,21.30
2019-04-04T07:47:56.331Z,20.40
2019-04-04T07:50:27.130Z,19.60
2019-04-04T07:52:57.286Z,17.80
2019-04-04T07:55:25.955Z,16.87
2019-04-04T07:57:55.235Z,16.63
2019-04-04T08:00:24.819Z,15.47
2019-04-04T08:02:58.301Z,16.43
2019-04-04T08:05:29.606Z,16.37
2019-04-04T08:07:58.300Z,15.27
2019-04-04T08:10:27.487Z,15.73
2019-04-04T08:12:57.287Z,14.83
2019-04-04T08:18:08.652Z,15.93
2019-04-04T08:20:41.194Z,14.83
2019-04-04T08:23:11.757Z,16.17
2019-04-04T08:25:41.683Z,14.40
2019-04-04T08:28:12.938Z,14.47
2019-04-04T08:30:43.141Z,14.17
2019-04-04T08:33:13.979Z,13.37
2019-04-04T08:38:25.553Z,13.07
2019-04-04T08:40:54.846Z,14.43
2019-04-04T08:43:24.615Z,13.37
2019-04-04T08:45:54.212Z,13.27
2019-04-04T08:48:24.719Z,12.80
2019-04-04T08:50:54.719Z,12.07
2019-04-04T08:53:24.464Z,14.20
2019-04-04T08:55:54.122Z,14.57
2019-04-04T08:58:22.809Z,13.87
2019-04-04T09:00:52.513Z,14.10
2019-04-04T09:03:21.266Z,14.03
2019-04-04T09:05:49.845Z,14.80
2019-04-04T09:08:18.528Z,15.80
2019-04-04T09:10:47.092Z,15.53
2019-04-04T09:13:16.281Z,15.53
2019-04-04T09:15:45.066Z,14.90
2019-04-04T09:18:14.046Z,15.83
2019-04-04T09:20:45.280Z,13.80
2019-04-04T09:23:13.946Z,14.57
2019-04-04T09:25:43.751Z,14.77
2019-04-04T09:28:12.526Z,14.47
2019-04-04T09:30:41.075Z,13.97
2019-04-04T09:33:10.876Z,13.73
2019-04-04T09:35:39.551Z,14.20
2019-04-04T09:38:08.173Z,13.03
2019-04-04T09:40:37.010Z,11.43
2019-04-04T09:43:05.686Z,12.53
2019-04-04T09:45:35.419Z,12.97
2019-04-04T09:48:04.502Z,13.03
2019-04-04T09:50:33.473Z,14.43
2019-04-04T09:53:02.360Z,13.50
2019-04-04T09:55:31.040Z,13.00
2019-04-04T09:58:00.960Z,12.40
2019-04-04T10:00:29.601Z,12.80
2019-04-04T10:02:58.319Z,13.33
2019-04-04T10:05:27.119Z,12.10
2019-04-04T10:07:55.863Z,12.60
2019-04-04T10:10:24.993Z,12.57
2019-04-04T10:12:53.738Z,13.20
2019-04-04T10:15:22.330Z,11.73
2019-04-04T10:17:51.033Z,12.23
2019-04-04T10:20:19.877Z,12.10
2019-04-04T10:22:48.766Z,12.33
2019-04-04T10:25:17.523Z,12.67
2019-04-04T10:27:46.143Z,14.13
2019-04-04T10:30:16.365Z,13.40
2019-04-04T10:32:45.459Z,12.50
2019-04-04T10:35:14.258Z,12.30
2019-04-04T10:37:43.957Z,11.03
2019-04-04T10:40:13.494Z,12.43
2019-04-04T10:42:42.174Z,12.13
2019-04-04T10:45:11.466Z,11.63
2019-04-04T10:47:40.139Z,12.13
2019-04-04T10:50:08.978Z,11.87
2019-04-04T10:52:37.708Z,12.33
2019-04-04T10:55:06.581Z,12.03
2019-04-04T10:57:35.440Z,13.67
2019-04-04T11:00:06.622Z,12.73
2019-04-04T11:02:35.542Z,12.33
2019-04-04T11:05:05.052Z,14.07
2019-04-04T11:07:33.880Z,13.33
2019-04-04T11:10:02.650Z,12.43
2019-04-04T11:12:34.153Z,14.27
2019-04-04T11:15:01.689Z,13.50
2019-04-04T11:17:30.436Z,13.90
2019-04-04T11:19:59.029Z,13.80
2019-04-04T11:22:27.642Z,14.27
2019-04-04T11:24:57.163Z,13.97
2019-04-04T11:27:25.622Z,14.70
2019-04-04T11:29:55.363Z,13.87
2019-04-04T11:32:24.007Z,15.30
2019-04-04T11:34:53.574Z,14.43
2019-04-04T11:37:25.145Z,15.27
2019-04-04T11:39:55.315Z,13.67
2019-04-04T11:42:24.495Z,13.77
2019-04-04T11:44:55.878Z,14.63
2019-04-04T11:47:24.905Z,14.50
2019-04-04T11:49:54.510Z,14.87
2019-04-04T11:52:23.866Z,15.20
2019-04-04T11:55:00.192Z,14.57
2019-04-04T11:57:29.296Z,13.60
2019-04-04T11:59:58.820Z,12.47
2019-04-04T12:02:32.612Z,13.40
2019-04-04T12:05:00.680Z,11.57
2019-04-04T12:07:29.090Z,11.23
2019-04-04T12:10:07.344Z,10.83
2019-04-04T12:12:29.280Z,9.93
2019-04-04T12:14:57.714Z,11.30
2019-04-04T12:17:26.389Z,10.33
2019-04-04T12:19:55.109Z,10.63
2019-04-04T12:22:34.008Z,10.50
2019-04-04T12:25:03.976Z,9.23
2019-04-04T12:27:32.832Z,10.47
2019-04-04T12:30:02.257Z,9.77
2019-04-04T12:32:31.866Z,9.40
2019-04-04T12:35:00.458Z,10.13
2019-04-04T12:37:28.983Z,10.40
2019-04-04T12:39:57.842Z,9.80
2019-04-04T12:42:26.468Z,9.63
2019-04-04T12:44:56.099Z,9.07
2019-04-04T12:47:24.887Z,10.33
2019-04-04T12:49:53.689Z,8.70
2019-04-04T12:52:22.431Z,8.87
2019-04-04T12:54:51.109Z,8.03
2019-04-04T12:57:22.543Z,8.70
2019-04-04T12:59:51.214Z,8.87
2019-04-04T13:02:20.470Z,8.83
2019-04-04T13:04:49.340Z,9.50
2019-04-04T13:07:18.587Z,8.80
2019-04-04T13:09:47.225Z,8.93
2019-04-04T13:12:16.374Z,9.37
2019-04-04T13:14:45.911Z,9.80
2019-04-04T13:17:14.646Z,9.97
2019-04-04T13:19:43.465Z,9.13
2019-04-04T13:22:12.260Z,8.47
2019-04-04T13:24:41.195Z,9.37
2019-04-04T13:27:09.992Z,9.50
2019-04-04T13:29:38.684Z,8.93
2019-04-04T13:32:07.254Z,8.47
2019-04-04T13:34:35.991Z,9.17
2019-04-04T13:37:04.933Z,7.60
2019-04-04T13:39:34.281Z,9.77
2019-04-04T13:42:03.019Z,9.23
2019-04-04T13:44:31.605Z,10.13
2019-04-04T13:47:02.719Z,8.87
2019-04-04T13:49:30.796Z,9.67
2019-04-04T13:51:59.621Z,8.67
2019-04-04T13:54:28.449Z,10.37
2019-04-04T13:56:57.275Z,9.80
2019-04-04T13:59:25.889Z,10.13
2019-04-04T14:01:54.949Z,9.43
2019-04-04T14:04:24.739Z,9.00
2019-04-04T14:06:54.391Z,9.67
2019-04-04T14:09:23.334Z,10.10
2019-04-04T14:11:52.104Z,9.97
2019-04-04T14:14:20.931Z,10.37
2019-04-04T14:16:49.598Z,10.93
2019-04-04T14:19:21.907Z,11.63
2019-04-04T14:21:51.684Z,12.37
2019-04-04T14:24:20.443Z,13.07
2019-04-04T14:26:50.196Z,14.53
2019-04-04T14:29:27.421Z,14.40
2019-04-04T14:31:50.682Z,14.27
2019-04-04T14:34:19.443Z,14.70
2019-04-04T14:36:48.100Z,15.90
2019-04-04T14:39:17.057Z,14.97
2019-04-04T14:41:46.115Z,15.87
2019-04-04T14:44:15.684Z,15.97
2019-04-04T14:46:45.613Z,16.30
2019-04-04T14:49:15.139Z,18.03
2019-04-04T14:51:44.324Z,17.20
2019-04-04T14:54:14.500Z,17.63
2019-04-04T14:56:49.272Z,16.30
2019-04-04T14:59:18.913Z,17.63
2019-04-04T15:01:47.826Z,19.00
2019-04-04T15:04:16.573Z,17.00
2019-04-04T15:06:45.654Z,16.70
2019-04-04T15:09:14.336Z,16.27
2019-04-04T15:11:44.146Z,17.73
2019-04-04T15:14:13.022Z,17.17
2019-04-04T15:16:41.728Z,18.33
2019-04-04T15:19:11.286Z,18.47
2019-04-04T15:21:40.134Z,18.80
2019-04-04T15:24:08.684Z,18.17
2019-04-04T15:26:37.364Z,16.13
2019-04-04T15:29:06.032Z,16.23
2019-04-04T15:31:34.698Z,16.80
2019-04-04T15:34:03.404Z,16.93
2019-04-04T15:36:32.391Z,16.63
2019-04-04T15:39:01.082Z,16.80
2019-04-04T15:41:36.658Z,17.73
2019-04-04T15:44:08.345Z,19.97
2019-04-04T15:46:38.258Z,19.83
2019-04-04T15:49:10.030Z,16.67
2019-04-04T15:51:43.420Z,17.80
2019-04-04T15:54:15.991Z,19.17
2019-04-04T15:57:08.040Z,19.10
2019-04-04T15:59:38.930Z,21.10
2019-04-04T16:02:11.334Z,24.43
2019-04-04T16:04:40.605Z,21.27
2019-04-04T16:07:09.665Z,23.07
2019-04-04T16:09:38.430Z,21.00
2019-04-04T16:12:07.308Z,21.30
2019-04-04T16:14:36.355Z,23.90
2019-04-04T16:17:05.263Z,23.50
2019-04-04T16:19:33.931Z,22.57
2019-04-04T16:22:02.791Z,22.63
2019-04-04T16:24:31.453Z,24.90
2019-04-04T16:27:00.368Z,21.73
2019-04-04T16:29:31.991Z,23.87
2019-04-04T16:32:01.310Z,24.40
2019-04-04T16:34:30.109Z,23.70
2019-04-04T16:36:59.638Z,23.57
2019-04-04T16:39:35.165Z,23.60
2019-04-04T16:42:04.382Z,22.63
2019-04-04T16:44:34.212Z,25.90
2019-04-04T16:47:04.580Z,25.90
2019-04-04T16:49:34.071Z,24.50
2019-04-04T16:52:03.840Z,26.70
2019-04-04T16:54:33.242Z,24.40
2019-04-04T16:57:03.110Z,24.20
2019-04-04T16:59:32.499Z,23.53
2019-04-04T17:02:02.289Z,25.40
2019-04-04T17:04:32.166Z,23.47
2019-04-04T17:07:01.862Z,25.53
2019-04-04T17:09:33.801Z,25.33
2019-04-04T17:12:14.414Z,23.77
2019-04-04T17:14:35.648Z,28.03
2019-04-04T17:17:08.695Z,28.30
2019-04-04T17:19:38.898Z,23.33
2019-04-04T17:22:08.870Z,26.47
2019-04-04T17:24:40.313Z,22.00
2019-04-04T17:27:14.959Z,26.97
2019-04-04T17:29:46.512Z,22.67
2019-04-04T17:32:16.791Z,20.80
2019-04-04T17:34:46.572Z,11.07
2019-04-04T17:37:15.891Z,11.40
2019-04-04T17:39:45.383Z,10.20
2019-04-04T17:42:27.034Z,9.53
2019-04-04T17:44:46.550Z,11.10
2019-04-04T17:47:18.098Z,10.17
2019-04-04T17:49:46.990Z,11.80
2019-04-04T17:52:16.113Z,12.07
2019-04-04T17:54:45.184Z,11.97
2019-04-04T17:57:14.488Z,11.53
2019-04-04T17:59:43.573Z,11.70
2019-04-04T18:02:12.459Z,11.50
2019-04-04T18:04:48.216Z,9.90
2019-04-04T18:07:12.533Z,9.27
2019-04-04T18:09:41.403Z,11.17
2019-04-04T18:12:10.249Z,10.83
2019-04-04T18:14:39.207Z,11.30
2019-04-04T18:17:07.794Z,10.53
2019-04-04T18:19:36.554Z,10.30
2019-04-04T18:22:05.409Z,12.00
2019-04-04T18:24:34.344Z,12.00
2019-04-04T18:27:03.247Z,11.00
2019-04-04T18:29:32.535Z,14.00
2019-04-04T18:32:01.235Z,14.17
2019-04-04T18:34:32.650Z,14.93
2019-04-04T18:37:01.630Z,14.13
2019-04-04T18:39:30.682Z,14.77
2019-04-04T18:41:59.498Z,17.50
2019-04-04T18:44:28.299Z,18.23
2019-04-04T18:46:57.054Z,19.07
2019-04-04T18:49:25.953Z,17.37
2019-04-04T18:51:55.181Z,18.67
2019-04-04T18:54:23.900Z,21.50
2019-04-04T18:56:52.570Z,20.80
2019-04-04T18:59:21.254Z,22.10
2019-04-04T19:01:50.134Z,22.80
2019-04-04T19:04:18.986Z,24.43
2019-04-04T19:06:47.722Z,23.93
2019-04-04T19:09:16.307Z,22.30
2019-04-04T19:11:45.058Z,23.93
2019-04-04T19:14:14.434Z,27.03
2019-04-04T19:16:43.307Z,26.07
2019-04-04T19:19:12.204Z,24.73
2019-04-04T19:21:41.083Z,26.77
2019-04-04T19:24:09.856Z,25.37
2019-04-04T19:26:38.922Z,28.73
2019-04-04T19:29:07.635Z,28.17
2019-04-04T19:31:36.575Z,27.53
2019-04-04T19:34:05.450Z,29.27
2019-04-04T19:36:34.326Z,27.73
2019-04-04T19:39:05.103Z,25.37
2019-04-04T19:41:33.692Z,26.43
2019-04-04T19:44:02.528Z,26.50
2019-04-04T19:46:36.844Z,25.33
2019-04-04T19:49:02.003Z,26.30
2019-04-04T19:51:30.589Z,29.50
2019-04-04T19:53:59.305Z,26.17
2019-04-04T19:56:27.912Z,27.87
2019-04-04T19:58:56.652Z,28.13
2019-04-04T20:01:25.962Z,27.83
2019-04-04T20:03:54.667Z,26.97
2019-04-04T20:06:23.349Z,29.13
2019-04-04T20:08:53.639Z,26.80
2019-04-04T20:11:22.557Z,26.50
2019-04-04T20:13:51.447Z,26.73
2019-04-04T20:16:20.128Z,25.27
2019-04-04T20:18:48.658Z,23.90
2019-04-04T20:21:17.524Z,23.73
2019-04-04T20:23:46.376Z,23.93
2019-04-04T20:26:15.200Z,25.80
2019-04-04T20:28:43.826Z,24.77
2019-04-04T20:31:12.485Z,24.53
2019-04-04T20:33:42.212Z,25.20
2019-04-04T20:36:10.902Z,22.47
2019-04-04T20:38:39.611Z,22.00
2019-04-04T20:41:08.335Z,21.83
2019-04-04T20:43:43.258Z,23.73
2019-04-04T20:46:07.960Z,23.87
2019-04-04T20:48:36.773Z,26.23
2019-04-04T20:51:05.529Z,27.00
2019-04-04T20:53:34.216Z,26.03
2019-04-04T20:56:02.804Z,27.20
2019-04-04T20:58:31.586Z,28.87
2019-04-04T21:01:01.438Z,28.53
2019-04-04T21:03:30.321Z,27.63
2019-04-04T21:05:59.143Z,25.80
2019-04-04T21:08:27.955Z,25.77
2019-04-04T21:10:56.513Z,26.53
2019-04-04T21:13:25.242Z,21.50
2019-04-04T21:15:54.032Z,21.93
2019-04-04T21:18:22.965Z,20.23
2019-04-04T21:20:51.850Z,16.37
2019-04-04T21:23:20.479Z,17.00
2019-04-04T21:25:49.015Z,19.10
2019-04-04T21:28:17.711Z,17.00
2019-04-04T21:30:46.537Z,18.70
2019-04-04T21:33:15.472Z,17.93
2019-04-04T21:35:45.651Z,20.63
2019-04-04T21:38:15.062Z,22.60
2019-04-04T21:40:44.135Z,26.80
2019-04-04T21:43:15.961Z,24.73
2019-04-04T21:45:45.233Z,24.57
2019-04-04T21:48:14.993Z,22.43
2019-04-04T21:50:44.990Z,23.13
2019-04-04T21:53:14.178Z,22.43
2019-04-04T21:55:43.399Z,24.60
2019-04-04T21:58:13.924Z,23.10
2019-04-04T22:00:44.365Z,21.00
2019-04-04T22:03:13.840Z,20.90
2019-04-04T22:05:43.002Z,19.10
2019-04-04T22:08:12.262Z,21.87
2019-04-04T22:10:43.031Z,22.10
2019-04-04T22:13:12.086Z,21.50
2019-04-04T22:15:40.853Z,20.83
2019-04-04T22:18:11.059Z,8.40
2019-04-04T22:20:40.454Z,3.77
2019-04-04T22:23:09.742Z,2.90
2019-04-04T22:25:38.303Z,3.00
2019-04-04T22:28:06.791Z,3.10
2019-04-04T22:30:35.340Z,2.67
2019-04-04T22:33:03.975Z,2.83
2019-04-04T22:35:32.823Z,2.60
2019-04-04T22:38:02.765Z,2.57
2019-04-04T22:40:31.372Z,2.60
2019-04-04T22:42:59.965Z,2.67
2019-04-04T22:45:29.762Z,2.40
2019-04-04T22:47:58.432Z,2.33
2019-04-04T22:50:27.108Z,2.30
2019-04-04T22:52:55.598Z,2.87
2019-04-04T22:55:26.559Z,3.97
2019-04-04T22:57:55.112Z,3.00
2019-04-04T23:00:23.944Z,2.10
2019-04-04T23:02:52.528Z,1.93
2019-04-04T23:05:21.380Z,1.87
2019-04-04T23:07:49.999Z,1.80
2019-04-04T23:10:18.714Z,2.30
2019-04-04T23:12:47.391Z,2.00
2019-04-04T23:15:15.914Z,2.20
2019-04-04T23:17:45.557Z,2.10
2019-04-04T23:20:15.906Z,2.10
2019-04-04T23:22:52.578Z,1.90
2019-04-04T23:25:15.110Z,1.80
2019-04-04T23:27:43.841Z,1.70
2019-04-04T23:30:12.879Z,1.80
2019-04-04T23:32:41.526Z,1.60
2019-04-04T23:35:10.445Z,1.80
2019-04-04T23:37:39.013Z,1.80
2019-04-04T23:40:08.200Z,1.90
2019-04-04T23:42:36.914Z,2.00
2019-04-04T23:45:06.175Z,1.70
2019-04-04T23:47:42.855Z,1.90
2019-04-04T23:50:05.780Z,1.70
2019-04-04T23:52:35.572Z,2.00
2019-04-04T23:55:04.624Z,2.10
2019-04-04T23:57:33.239Z,2.10
